Gold Bridge, Canada
Current Conditions -  °F | °C
As of 1:00 PM on Sunday 23 Nov 2014 (Local Time) from CYIN Reporting Station
Clear Clear  
Wind Chill: 36°   Ceiling: Unl
Heat Index: 41°   Visibility: 9mi
Dew Point: 19°   Wind: 8mph
Humidity: 42%   Direction: 260°W
Pressure: 29.76"   Gusts: 17mph
Location:  50.85°N, 122.85°W
Report Text: CYIN 232100Z AUTO 26007G15KT 240V320 9SM CLR 05/M07 A2976 RMK SLP111
Loading
Personal Weather Stations






























Interactive Weather Map New forecast layout! Learn more

10-Day Weather Forecast

Advertisements
Track Severe Weather on mobile